KDHN/DHN METAR and TAF weather

Enter ICAO airport designator
Station Type Date Time Source
KDHN METAR 2020/06/05 08:53 UTC NOAA

KDHN 050853Z AUTO 32003KT 10SM CLR 23/21 A3000 RMK AO2 SLP154 T02280206 56001


Station Type Date Time Source
KDHN Decoded METAR 2020/06/05 08:53 UTC NOAA

DOTHAN AIRPORT, AL, United States (KDHN) 31-19N 085-27W 113M
Jun 05, 2020 - 04:53 AM EDT / 2020.06.05 0853 UTC
Wind: from the NW (320 degrees) at 3 MPH (3 KT):0
Visibility: 10 mile(s):0
Sky conditions: clear
Temperature: 73.0 F (22.8 C)
Dew Point: 69.1 F (20.6 C)
Relative Humidity: 87%
Pressure (altimeter): 30 in. Hg (1015 hPa)
Pressure tendency: 0.00 inches (0.1 hPa) lower than three hours ago
ob: KDHN 050853Z AUTO 32003KT 10SM CLR 23/21 A3000 RMK AO2 SLP154 T02280206 56001
cycle: 9

Station Type Date Time Source
KDHN TAF 2020/06/05 06:39 UTC NOAA

TAF KDHN 050536Z 0506/0606 20005KT P6SM FEW050
FM051400 19004KT P6SM SCT050
FM052000 24006KT P6SM TSRA BKN050CB
FM060000 23006KT P6SM SCT040 BKN250

Example: see airport list